sensor_id;sensor_type;location;lat;lon;timestamp;P1;durP1;ratioP1;P2;durP2;ratioP2
74245;SDS011;62601;51.044;13.788;2023-05-07T00:01:52;17.08;;;13.52;;
74245;SDS011;62601;51.044;13.788;2023-05-07T00:04:13;14.25;;;11.57;;
74245;SDS011;62601;51.044;13.788;2023-05-07T00:06:33;14.13;;;12.30;;
74245;SDS011;62601;51.044;13.788;2023-05-07T00:08:56;14.05;;;11.63;;
74245;SDS011;62601;51.044;13.788;2023-05-07T00:11:16;15.02;;;12.52;;
74245;SDS011;62601;51.044;13.788;2023-05-07T00:13:36;14.95;;;12.88;;
74245;SDS011;62601;51.044;13.788;2023-05-07T00:15:56;16.50;;;11.70;;
74245;SDS011;62601;51.044;13.788;2023-05-07T00:18:16;14.13;;;11.70;;
74245;SDS011;62601;51.044;13.788;2023-05-07T00:20:37;15.30;;;11.02;;
74245;SDS011;62601;51.044;13.788;2023-05-07T00:22:57;14.45;;;11.75;;
74245;SDS011;62601;51.044;13.788;2023-05-07T00:25:17;13.20;;;11.80;;
74245;SDS011;62601;51.044;13.788;2023-05-07T00:27:37;14.70;;;11.68;;
74245;SDS011;62601;51.044;13.788;2023-05-07T00:29:57;16.10;;;12.38;;
74245;SDS011;62601;51.044;13.788;2023-05-07T00:32:17;14.60;;;12.43;;
74245;SDS011;62601;51.044;13.788;2023-05-07T00:34:37;17.00;;;13.80;;
74245;SDS011;62601;51.044;13.788;2023-05-07T00:36:57;14.50;;;12.07;;
74245;SDS011;62601;51.044;13.788;2023-05-07T00:39:17;14.95;;;13.35;;
74245;SDS011;62601;51.044;13.788;2023-05-07T00:41:37;19.67;;;12.80;;
74245;SDS011;62601;51.044;13.788;2023-05-07T00:43:58;18.48;;;14.48;;
74245;SDS011;62601;51.044;13.788;2023-05-07T00:46:19;16.48;;;13.27;;
74245;SDS011;62601;51.044;13.788;2023-05-07T00:48:40;18.33;;;14.25;;
74245;SDS011;62601;51.044;13.788;2023-05-07T00:51:00;16.73;;;14.50;;
74245;SDS011;62601;51.044;13.788;2023-05-07T00:53:20;16.90;;;14.40;;
74245;SDS011;62601;51.044;13.788;2023-05-07T00:55:40;17.90;;;15.73;;
74245;SDS011;62601;51.044;13.788;2023-05-07T00:58:00;21.15;;;14.82;;
74245;SDS011;62601;51.044;13.788;2023-05-07T01:00:20;18.70;;;15.20;;
74245;SDS011;62601;51.044;13.788;2023-05-07T01:02:41;16.30;;;14.32;;
74245;SDS011;62601;51.044;13.788;2023-05-07T01:05:01;17.58;;;14.88;;
74245;SDS011;62601;51.044;13.788;2023-05-07T01:07:22;17.23;;;14.77;;
74245;SDS011;62601;51.044;13.788;2023-05-07T01:09:43;17.55;;;14.57;;
74245;SDS011;62601;51.044;13.788;2023-05-07T01:12:03;17.98;;;14.10;;
74245;SDS011;62601;51.044;13.788;2023-05-07T01:14:24;18.20;;;14.05;;
74245;SDS011;62601;51.044;13.788;2023-05-07T01:16:44;17.63;;;13.35;;
74245;SDS011;62601;51.044;13.788;2023-05-07T01:19:04;18.70;;;14.48;;
74245;SDS011;62601;51.044;13.788;2023-05-07T01:21:25;17.27;;;13.10;;
74245;SDS011;62601;51.044;13.788;2023-05-07T01:23:46;16.08;;;13.38;;
74245;SDS011;62601;51.044;13.788;2023-05-07T01:26:06;18.67;;;14.15;;
74245;SDS011;62601;51.044;13.788;2023-05-07T01:28:27;16.85;;;13.93;;
74245;SDS011;62601;51.044;13.788;2023-05-07T01:30:48;14.50;;;12.35;;
74245;SDS011;62601;51.044;13.788;2023-05-07T01:33:10;15.32;;;13.70;;
74245;SDS011;62601;51.044;13.788;2023-05-07T01:35:32;16.77;;;13.20;;
74245;SDS011;62601;51.044;13.788;2023-05-07T01:37:54;13.88;;;12.38;;
74245;SDS011;62601;51.044;13.788;2023-05-07T01:40:14;13.63;;;12.20;;
74245;SDS011;62601;51.044;13.788;2023-05-07T01:42:34;13.75;;;11.85;;
74245;SDS011;62601;51.044;13.788;2023-05-07T01:44:55;16.23;;;13.23;;
74245;SDS011;62601;51.044;13.788;2023-05-07T01:47:15;14.85;;;13.30;;
74245;SDS011;62601;51.044;13.788;2023-05-07T01:49:36;17.75;;;13.75;;
74245;SDS011;62601;51.044;13.788;2023-05-07T01:51:56;15.52;;;13.88;;
74245;SDS011;62601;51.044;13.788;2023-05-07T01:54:16;16.42;;;13.40;;
74245;SDS011;62601;51.044;13.788;2023-05-07T01:56:36;16.73;;;14.18;;
74245;SDS011;62601;51.044;13.788;2023-05-07T01:58:56;15.23;;;13.45;;
74245;SDS011;62601;51.044;13.788;2023-05-07T02:01:17;14.88;;;12.68;;
74245;SDS011;62601;51.044;13.788;2023-05-07T02:03:37;15.40;;;13.10;;
74245;SDS011;62601;51.044;13.788;2023-05-07T02:05:57;16.55;;;13.82;;
74245;SDS011;62601;51.044;13.788;2023-05-07T02:08:17;14.98;;;13.48;;
74245;SDS011;62601;51.044;13.788;2023-05-07T02:10:37;15.48;;;13.30;;
74245;SDS011;62601;51.044;13.788;2023-05-07T02:12:57;14.30;;;12.80;;
74245;SDS011;62601;51.044;13.788;2023-05-07T02:15:17;13.57;;;12.07;;
74245;SDS011;62601;51.044;13.788;2023-05-07T02:18:11;15.80;;;14.10;;
74245;SDS011;62601;51.044;13.788;2023-05-07T02:20:24;15.40;;;12.95;;
74245;SDS011;62601;51.044;13.788;2023-05-07T02:22:44;15.32;;;13.00;;
74245;SDS011;62601;51.044;13.788;2023-05-07T02:25:04;16.45;;;14.10;;
74245;SDS011;62601;51.044;13.788;2023-05-07T02:27:24;15.15;;;13.25;;
74245;SDS011;62601;51.044;13.788;2023-05-07T02:29:44;17.20;;;15.07;;
74245;SDS011;62601;51.044;13.788;2023-05-07T02:32:04;16.58;;;13.80;;
74245;SDS011;62601;51.044;13.788;2023-05-07T02:34:24;15.30;;;13.70;;
74245;SDS011;62601;51.044;13.788;2023-05-07T02:36:45;16.30;;;13.65;;
74245;SDS011;62601;51.044;13.788;2023-05-07T02:39:05;16.17;;;13.00;;
74245;SDS011;62601;51.044;13.788;2023-05-07T02:41:25;14.60;;;12.55;;
74245;SDS011;62601;51.044;13.788;2023-05-07T02:43:45;13.52;;;12.13;;
74245;SDS011;62601;51.044;13.788;2023-05-07T02:46:07;15.38;;;12.90;;
74245;SDS011;62601;51.044;13.788;2023-05-07T02:48:27;13.65;;;12.15;;
74245;SDS011;62601;51.044;13.788;2023-05-07T02:50:47;12.38;;;11.02;;
74245;SDS011;62601;51.044;13.788;2023-05-07T02:53:07;11.75;;;10.50;;
74245;SDS011;62601;51.044;13.788;2023-05-07T02:55:27;11.80;;;10.50;;
74245;SDS011;62601;51.044;13.788;2023-05-07T02:57:48;11.85;;;9.82;;
74245;SDS011;62601;51.044;13.788;2023-05-07T03:00:12;12.10;;;9.25;;
74245;SDS011;62601;51.044;13.788;2023-05-07T03:02:32;10.35;;;8.55;;
74245;SDS011;62601;51.044;13.788;2023-05-07T03:04:52;9.57;;;8.50;;
74245;SDS011;62601;51.044;13.788;2023-05-07T03:07:12;9.65;;;8.65;;
74245;SDS011;62601;51.044;13.788;2023-05-07T03:09:32;10.80;;;9.52;;
74245;SDS011;62601;51.044;13.788;2023-05-07T03:11:52;11.50;;;9.90;;
74245;SDS011;62601;51.044;13.788;2023-05-07T03:14:12;9.85;;;8.63;;
74245;SDS011;62601;51.044;13.788;2023-05-07T03:16:32;10.50;;;9.40;;
74245;SDS011;62601;51.044;13.788;2023-05-07T03:18:52;11.32;;;9.10;;
74245;SDS011;62601;51.044;13.788;2023-05-07T03:21:12;11.30;;;9.23;;
74245;SDS011;62601;51.044;13.788;2023-05-07T03:23:33;12.85;;;9.02;;
74245;SDS011;62601;51.044;13.788;2023-05-07T03:25:53;11.10;;;8.95;;
74245;SDS011;62601;51.044;13.788;2023-05-07T03:28:13;10.25;;;8.70;;
74245;SDS011;62601;51.044;13.788;2023-05-07T03:30:33;12.80;;;9.88;;
74245;SDS011;62601;51.044;13.788;2023-05-07T03:32:53;11.27;;;9.88;;
74245;SDS011;62601;51.044;13.788;2023-05-07T03:35:13;11.63;;;9.68;;
74245;SDS011;62601;51.044;13.788;2023-05-07T03:37:33;11.30;;;9.23;;
74245;SDS011;62601;51.044;13.788;2023-05-07T03:39:53;11.90;;;9.88;;
74245;SDS011;62601;51.044;13.788;2023-05-07T03:42:14;12.20;;;9.60;;
74245;SDS011;62601;51.044;13.788;2023-05-07T03:44:34;12.50;;;10.20;;
74245;SDS011;62601;51.044;13.788;2023-05-07T03:46:54;15.38;;;10.75;;
74245;SDS011;62601;51.044;13.788;2023-05-07T03:49:14;13.02;;;10.00;;
74245;SDS011;62601;51.044;13.788;2023-05-07T03:51:34;14.00;;;10.43;;
74245;SDS011;62601;51.044;13.788;2023-05-07T03:53:54;14.05;;;11.05;;
74245;SDS011;62601;51.044;13.788;2023-05-07T03:56:14;15.93;;;11.30;;
74245;SDS011;62601;51.044;13.788;2023-05-07T03:58:35;17.38;;;11.65;;
74245;SDS011;62601;51.044;13.788;2023-05-07T04:00:55;14.60;;;11.48;;
74245;SDS011;62601;51.044;13.788;2023-05-07T04:03:15;16.88;;;11.40;;
74245;SDS011;62601;51.044;13.788;2023-05-07T04:05:35;15.70;;;11.70;;
74245;SDS011;62601;51.044;13.788;2023-05-07T04:07:55;16.40;;;12.15;;
74245;SDS011;62601;51.044;13.788;2023-05-07T04:10:15;18.48;;;12.13;;
74245;SDS011;62601;51.044;13.788;2023-05-07T04:12:35;17.70;;;12.73;;
74245;SDS011;62601;51.044;13.788;2023-05-07T04:14:55;15.80;;;12.82;;
74245;SDS011;62601;51.044;13.788;2023-05-07T04:17:15;15.77;;;12.18;;
74245;SDS011;62601;51.044;13.788;2023-05-07T04:19:35;18.23;;;13.10;;
74245;SDS011;62601;51.044;13.788;2023-05-07T04:21:56;16.15;;;11.82;;
74245;SDS011;62601;51.044;13.788;2023-05-07T04:24:16;14.13;;;11.35;;
74245;SDS011;62601;51.044;13.788;2023-05-07T04:26:36;14.88;;;10.52;;
74245;SDS011;62601;51.044;13.788;2023-05-07T04:28:56;14.15;;;11.25;;
74245;SDS011;62601;51.044;13.788;2023-05-07T04:31:16;14.30;;;12.10;;
74245;SDS011;62601;51.044;13.788;2023-05-07T04:33:36;17.40;;;11.90;;
74245;SDS011;62601;51.044;13.788;2023-05-07T04:35:56;16.67;;;11.55;;
74245;SDS011;62601;51.044;13.788;2023-05-07T04:38:16;13.27;;;11.25;;
74245;SDS011;62601;51.044;13.788;2023-05-07T04:40:36;14.82;;;11.57;;
74245;SDS011;62601;51.044;13.788;2023-05-07T04:42:57;14.63;;;11.15;;
74245;SDS011;62601;51.044;13.788;2023-05-07T04:45:17;14.68;;;10.93;;
74245;SDS011;62601;51.044;13.788;2023-05-07T04:47:37;13.85;;;10.23;;
74245;SDS011;62601;51.044;13.788;2023-05-07T04:49:57;13.23;;;10.93;;
74245;SDS011;62601;51.044;13.788;2023-05-07T04:52:17;13.02;;;9.85;;
74245;SDS011;62601;51.044;13.788;2023-05-07T04:54:37;12.50;;;10.40;;
74245;SDS011;62601;51.044;13.788;2023-05-07T04:56:57;13.00;;;10.18;;
74245;SDS011;62601;51.044;13.788;2023-05-07T04:59:17;17.38;;;11.40;;
74245;SDS011;62601;51.044;13.788;2023-05-07T05:01:38;14.38;;;11.35;;
74245;SDS011;62601;51.044;13.788;2023-05-07T05:03:58;16.35;;;10.75;;
74245;SDS011;62601;51.044;13.788;2023-05-07T05:06:18;14.82;;;11.00;;
74245;SDS011;62601;51.044;13.788;2023-05-07T05:08:38;17.73;;;12.50;;
74245;SDS011;62601;51.044;13.788;2023-05-07T05:10:58;13.68;;;11.40;;
74245;SDS011;62601;51.044;13.788;2023-05-07T05:13:18;15.05;;;11.93;;
74245;SDS011;62601;51.044;13.788;2023-05-07T05:15:38;15.52;;;11.40;;
74245;SDS011;62601;51.044;13.788;2023-05-07T05:17:58;13.82;;;11.52;;
74245;SDS011;62601;51.044;13.788;2023-05-07T05:20:18;13.32;;;10.85;;
74245;SDS011;62601;51.044;13.788;2023-05-07T05:22:38;14.38;;;10.57;;
74245;SDS011;62601;51.044;13.788;2023-05-07T05:24:58;15.20;;;12.00;;
74245;SDS011;62601;51.044;13.788;2023-05-07T05:27:19;13.15;;;10.90;;
74245;SDS011;62601;51.044;13.788;2023-05-07T05:29:39;15.57;;;11.15;;
74245;SDS011;62601;51.044;13.788;2023-05-07T05:31:59;16.10;;;11.77;;
74245;SDS011;62601;51.044;13.788;2023-05-07T05:34:19;17.80;;;13.38;;
74245;SDS011;62601;51.044;13.788;2023-05-07T05:36:39;11.93;;;10.57;;
74245;SDS011;62601;51.044;13.788;2023-05-07T05:38:59;14.00;;;10.60;;
74245;SDS011;62601;51.044;13.788;2023-05-07T05:41:19;15.00;;;10.45;;
74245;SDS011;62601;51.044;13.788;2023-05-07T05:43:39;12.40;;;9.20;;
74245;SDS011;62601;51.044;13.788;2023-05-07T05:45:59;12.68;;;9.98;;
74245;SDS011;62601;51.044;13.788;2023-05-07T05:48:19;10.52;;;9.20;;
74245;SDS011;62601;51.044;13.788;2023-05-07T05:50:39;11.05;;;8.77;;
74245;SDS011;62601;51.044;13.788;2023-05-07T05:53:00;11.90;;;8.70;;
74245;SDS011;62601;51.044;13.788;2023-05-07T05:55:20;10.38;;;8.38;;
74245;SDS011;62601;51.044;13.788;2023-05-07T05:57:40;12.48;;;8.40;;
74245;SDS011;62601;51.044;13.788;2023-05-07T06:00:00;10.07;;;8.02;;
74245;SDS011;62601;51.044;13.788;2023-05-07T06:02:21;9.98;;;8.13;;
74245;SDS011;62601;51.044;13.788;2023-05-07T06:04:41;9.40;;;7.57;;
74245;SDS011;62601;51.044;13.788;2023-05-07T06:07:01;8.70;;;7.25;;
74245;SDS011;62601;51.044;13.788;2023-05-07T06:09:21;9.65;;;7.00;;
74245;SDS011;62601;51.044;13.788;2023-05-07T06:11:41;9.48;;;7.55;;
74245;SDS011;62601;51.044;13.788;2023-05-07T06:14:01;8.13;;;6.50;;
74245;SDS011;62601;51.044;13.788;2023-05-07T06:16:21;9.10;;;7.35;;
74245;SDS011;62601;51.044;13.788;2023-05-07T06:18:41;7.50;;;6.75;;
74245;SDS011;62601;51.044;13.788;2023-05-07T06:21:01;9.93;;;8.35;;
74245;SDS011;62601;51.044;13.788;2023-05-07T06:23:22;9.25;;;7.25;;
74245;SDS011;62601;51.044;13.788;2023-05-07T06:25:42;9.02;;;7.45;;
74245;SDS011;62601;51.044;13.788;2023-05-07T06:28:02;9.63;;;7.30;;
74245;SDS011;62601;51.044;13.788;2023-05-07T06:30:22;8.35;;;7.13;;
74245;SDS011;62601;51.044;13.788;2023-05-07T06:32:42;7.85;;;6.53;;
74245;SDS011;62601;51.044;13.788;2023-05-07T06:35:02;8.13;;;6.55;;
74245;SDS011;62601;51.044;13.788;2023-05-07T06:37:22;7.85;;;7.10;;
74245;SDS011;62601;51.044;13.788;2023-05-07T06:39:42;8.40;;;7.07;;
74245;SDS011;62601;51.044;13.788;2023-05-07T06:42:02;10.02;;;6.40;;
74245;SDS011;62601;51.044;13.788;2023-05-07T06:44:23;7.82;;;7.03;;
74245;SDS011;62601;51.044;13.788;2023-05-07T06:46:43;9.43;;;7.20;;
74245;SDS011;62601;51.044;13.788;2023-05-07T06:49:03;11.35;;;7.90;;
74245;SDS011;62601;51.044;13.788;2023-05-07T06:51:23;9.77;;;7.55;;
74245;SDS011;62601;51.044;13.788;2023-05-07T06:53:43;9.25;;;7.63;;
74245;SDS011;62601;51.044;13.788;2023-05-07T06:56:03;9.85;;;8.85;;
74245;SDS011;62601;51.044;13.788;2023-05-07T06:58:23;9.20;;;8.23;;
74245;SDS011;62601;51.044;13.788;2023-05-07T07:00:43;11.63;;;9.48;;
74245;SDS011;62601;51.044;13.788;2023-05-07T07:03:03;10.30;;;9.20;;
74245;SDS011;62601;51.044;13.788;2023-05-07T07:05:24;10.27;;;9.18;;
74245;SDS011;62601;51.044;13.788;2023-05-07T07:07:44;11.50;;;9.88;;
74245;SDS011;62601;51.044;13.788;2023-05-07T07:10:04;13.25;;;9.23;;
74245;SDS011;62601;51.044;13.788;2023-05-07T07:12:24;12.70;;;9.95;;
74245;SDS011;62601;51.044;13.788;2023-05-07T07:14:44;7.88;;;7.07;;
74245;SDS011;62601;51.044;13.788;2023-05-07T07:17:04;7.90;;;7.03;;
74245;SDS011;62601;51.044;13.788;2023-05-07T07:19:25;9.25;;;7.85;;
74245;SDS011;62601;51.044;13.788;2023-05-07T07:21:46;6.88;;;6.25;;
74245;SDS011;62601;51.044;13.788;2023-05-07T07:24:06;8.02;;;6.20;;
74245;SDS011;62601;51.044;13.788;2023-05-07T07:26:26;7.45;;;6.38;;
74245;SDS011;62601;51.044;13.788;2023-05-07T07:28:46;7.63;;;6.70;;
74245;SDS011;62601;51.044;13.788;2023-05-07T07:31:06;6.82;;;5.97;;
74245;SDS011;62601;51.044;13.788;2023-05-07T07:33:26;7.00;;;6.05;;
74245;SDS011;62601;51.044;13.788;2023-05-07T07:35:46;7.00;;;6.30;;
74245;SDS011;62601;51.044;13.788;2023-05-07T07:38:06;6.40;;;5.22;;
74245;SDS011;62601;51.044;13.788;2023-05-07T07:40:26;6.45;;;5.35;;
74245;SDS011;62601;51.044;13.788;2023-05-07T07:42:46;6.50;;;5.45;;
74245;SDS011;62601;51.044;13.788;2023-05-07T07:45:07;6.72;;;5.95;;
74245;SDS011;62601;51.044;13.788;2023-05-07T07:47:27;6.68;;;6.07;;
74245;SDS011;62601;51.044;13.788;2023-05-07T07:49:47;6.63;;;6.00;;
74245;SDS011;62601;51.044;13.788;2023-05-07T07:52:07;5.90;;;5.40;;
74245;SDS011;62601;51.044;13.788;2023-05-07T07:54:27;7.05;;;5.63;;
74245;SDS011;62601;51.044;13.788;2023-05-07T07:56:47;6.20;;;5.60;;
74245;SDS011;62601;51.044;13.788;2023-05-07T07:59:07;6.70;;;6.10;;
74245;SDS011;62601;51.044;13.788;2023-05-07T08:01:29;6.95;;;6.25;;
74245;SDS011;62601;51.044;13.788;2023-05-07T08:03:50;5.55;;;4.93;;
74245;SDS011;62601;51.044;13.788;2023-05-07T08:06:10;6.45;;;5.85;;
74245;SDS011;62601;51.044;13.788;2023-05-07T08:08:30;6.40;;;5.80;;
74245;SDS011;62601;51.044;13.788;2023-05-07T08:10:50;6.65;;;5.70;;
74245;SDS011;62601;51.044;13.788;2023-05-07T08:13:10;6.18;;;5.57;;
74245;SDS011;62601;51.044;13.788;2023-05-07T08:15:31;6.18;;;5.57;;
74245;SDS011;62601;51.044;13.788;2023-05-07T08:17:51;5.53;;;5.03;;
74245;SDS011;62601;51.044;13.788;2023-05-07T08:20:11;5.72;;;5.15;;
74245;SDS011;62601;51.044;13.788;2023-05-07T08:22:31;6.10;;;5.40;;
74245;SDS011;62601;51.044;13.788;2023-05-07T08:24:51;5.10;;;4.50;;
74245;SDS011;62601;51.044;13.788;2023-05-07T08:27:11;5.47;;;4.97;;
74245;SDS011;62601;51.044;13.788;2023-05-07T08:29:31;5.88;;;5.30;;
74245;SDS011;62601;51.044;13.788;2023-05-07T08:31:51;5.63;;;5.13;;
74245;SDS011;62601;51.044;13.788;2023-05-07T08:34:11;5.50;;;5.00;;
74245;SDS011;62601;51.044;13.788;2023-05-07T08:36:32;5.30;;;4.80;;
74245;SDS011;62601;51.044;13.788;2023-05-07T08:38:52;6.10;;;5.60;;
74245;SDS011;62601;51.044;13.788;2023-05-07T08:41:12;6.18;;;5.65;;
74245;SDS011;62601;51.044;13.788;2023-05-07T08:43:32;6.65;;;6.05;;
74245;SDS011;62601;51.044;13.788;2023-05-07T08:45:53;5.90;;;5.40;;
74245;SDS011;62601;51.044;13.788;2023-05-07T08:48:17;6.15;;;5.55;;
74245;SDS011;62601;51.044;13.788;2023-05-07T08:50:37;6.50;;;5.90;;
74245;SDS011;62601;51.044;13.788;2023-05-07T08:52:57;6.55;;;6.00;;
74245;SDS011;62601;51.044;13.788;2023-05-07T08:55:17;8.43;;;7.63;;
74245;SDS011;62601;51.044;13.788;2023-05-07T08:57:38;8.27;;;7.53;;
74245;SDS011;62601;51.044;13.788;2023-05-07T08:59:58;6.90;;;6.30;;
74245;SDS011;62601;51.044;13.788;2023-05-07T09:02:18;8.55;;;7.00;;
74245;SDS011;62601;51.044;13.788;2023-05-07T09:04:38;8.88;;;7.65;;
74245;SDS011;62601;51.044;13.788;2023-05-07T09:06:58;9.23;;;8.32;;
74245;SDS011;62601;51.044;13.788;2023-05-07T09:09:19;8.35;;;7.45;;
74245;SDS011;62601;51.044;13.788;2023-05-07T09:11:41;8.35;;;7.30;;
74245;SDS011;62601;51.044;13.788;2023-05-07T09:14:01;8.10;;;7.30;;
74245;SDS011;62601;51.044;13.788;2023-05-07T09:16:21;8.07;;;7.15;;
74245;SDS011;62601;51.044;13.788;2023-05-07T09:18:42;7.65;;;6.85;;
74245;SDS011;62601;51.044;13.788;2023-05-07T09:21:02;7.93;;;7.13;;
74245;SDS011;62601;51.044;13.788;2023-05-07T09:23:22;8.82;;;7.70;;
74245;SDS011;62601;51.044;13.788;2023-05-07T09:25:42;7.45;;;6.75;;
74245;SDS011;62601;51.044;13.788;2023-05-07T09:28:03;8.95;;;7.45;;
74245;SDS011;62601;51.044;13.788;2023-05-07T09:30:26;7.97;;;6.90;;
74245;SDS011;62601;51.044;13.788;2023-05-07T09:32:47;9.48;;;7.55;;
74245;SDS011;62601;51.044;13.788;2023-05-07T09:35:14;8.07;;;6.97;;
74245;SDS011;62601;51.044;13.788;2023-05-07T09:37:34;8.18;;;7.38;;
74245;SDS011;62601;51.044;13.788;2023-05-07T09:39:55;9.23;;;8.05;;
74245;SDS011;62601;51.044;13.788;2023-05-07T09:42:15;9.13;;;8.20;;
74245;SDS011;62601;51.044;13.788;2023-05-07T09:44:35;8.00;;;7.20;;
74245;SDS011;62601;51.044;13.788;2023-05-07T09:46:55;8.15;;;7.35;;
74245;SDS011;62601;51.044;13.788;2023-05-07T09:49:20;7.95;;;7.15;;
74245;SDS011;62601;51.044;13.788;2023-05-07T09:51:45;8.10;;;7.32;;
74245;SDS011;62601;51.044;13.788;2023-05-07T09:54:07;7.80;;;7.10;;
74245;SDS011;62601;51.044;13.788;2023-05-07T09:56:27;7.47;;;6.78;;
74245;SDS011;62601;51.044;13.788;2023-05-07T09:58:49;8.30;;;7.50;;
74245;SDS011;62601;51.044;13.788;2023-05-07T10:01:10;8.95;;;8.05;;
74245;SDS011;62601;51.044;13.788;2023-05-07T10:03:30;9.45;;;8.55;;
74245;SDS011;62601;51.044;13.788;2023-05-07T10:05:50;10.30;;;9.25;;
74245;SDS011;62601;51.044;13.788;2023-05-07T10:08:11;10.13;;;9.13;;
74245;SDS011;62601;51.044;13.788;2023-05-07T10:10:32;10.23;;;9.23;;
74245;SDS011;62601;51.044;13.788;2023-05-07T10:12:52;11.68;;;9.57;;
74245;SDS011;62601;51.044;13.788;2023-05-07T10:15:13;9.60;;;8.60;;
74245;SDS011;62601;51.044;13.788;2023-05-07T10:17:35;11.20;;;10.10;;
74245;SDS011;62601;51.044;13.788;2023-05-07T10:19:55;10.88;;;9.77;;
74245;SDS011;62601;51.044;13.788;2023-05-07T10:22:15;9.70;;;8.57;;
74245;SDS011;62601;51.044;13.788;2023-05-07T10:24:36;9.05;;;8.15;;
74245;SDS011;62601;51.044;13.788;2023-05-07T10:26:56;8.60;;;7.82;;
74245;SDS011;62601;51.044;13.788;2023-05-07T10:29:33;8.75;;;7.95;;
74245;SDS011;62601;51.044;13.788;2023-05-07T10:32:07;9.25;;;8.35;;
74245;SDS011;62601;51.044;13.788;2023-05-07T10:34:39;9.15;;;8.30;;
74245;SDS011;62601;51.044;13.788;2023-05-07T10:37:00;8.93;;;8.02;;
74245;SDS011;62601;51.044;13.788;2023-05-07T10:39:21;9.75;;;8.20;;
74245;SDS011;62601;51.044;13.788;2023-05-07T10:41:41;8.40;;;7.70;;
74245;SDS011;62601;51.044;13.788;2023-05-07T10:44:01;8.98;;;8.18;;
74245;SDS011;62601;51.044;13.788;2023-05-07T10:46:22;8.52;;;7.65;;
74245;SDS011;62601;51.044;13.788;2023-05-07T10:51:21;10.25;;;8.40;;
74245;SDS011;62601;51.044;13.788;2023-05-07T10:53:42;8.93;;;7.90;;
74245;SDS011;62601;51.044;13.788;2023-05-07T10:58:39;8.13;;;7.35;;
74245;SDS011;62601;51.044;13.788;2023-05-07T11:01:00;10.52;;;6.90;;
74245;SDS011;62601;51.044;13.788;2023-05-07T11:03:21;8.43;;;7.10;;
74245;SDS011;62601;51.044;13.788;2023-05-07T11:05:43;7.78;;;6.97;;
74245;SDS011;62601;51.044;13.788;2023-05-07T11:08:05;7.45;;;6.75;;
74245;SDS011;62601;51.044;13.788;2023-05-07T11:10:47;8.00;;;7.35;;
74245;SDS011;62601;51.044;13.788;2023-05-07T11:13:09;8.90;;;8.00;;
74245;SDS011;62601;51.044;13.788;2023-05-07T11:15:37;7.65;;;6.85;;
74245;SDS011;62601;51.044;13.788;2023-05-07T11:17:59;7.72;;;6.93;;
74245;SDS011;62601;51.044;13.788;2023-05-07T11:20:27;28.80;;;19.52;;
74245;SDS011;62601;51.044;13.788;2023-05-07T11:23:03;10.57;;;8.70;;
74245;SDS011;62601;51.044;13.788;2023-05-07T11:25:25;14.93;;;10.80;;
74245;SDS011;62601;51.044;13.788;2023-05-07T11:27:46;8.02;;;6.88;;
74245;SDS011;62601;51.044;13.788;2023-05-07T11:30:06;7.43;;;6.53;;
74245;SDS011;62601;51.044;13.788;2023-05-07T11:32:30;8.02;;;7.32;;
74245;SDS011;62601;51.044;13.788;2023-05-07T11:34:55;7.75;;;7.05;;
74245;SDS011;62601;51.044;13.788;2023-05-07T11:37:20;6.72;;;6.22;;
74245;SDS011;62601;51.044;13.788;2023-05-07T11:39:43;8.15;;;7.28;;
74245;SDS011;62601;51.044;13.788;2023-05-07T11:42:04;8.37;;;7.57;;
74245;SDS011;62601;51.044;13.788;2023-05-07T11:44:39;8.13;;;7.37;;
74245;SDS011;62601;51.044;13.788;2023-05-07T11:47:01;8.55;;;7.65;;
74245;SDS011;62601;51.044;13.788;2023-05-07T11:49:24;8.45;;;7.60;;
74245;SDS011;62601;51.044;13.788;2023-05-07T11:51:45;7.80;;;7.10;;
74245;SDS011;62601;51.044;13.788;2023-05-07T11:54:06;8.33;;;7.53;;
74245;SDS011;62601;51.044;13.788;2023-05-07T11:56:27;8.10;;;7.30;;
74245;SDS011;62601;51.044;13.788;2023-05-07T11:58:49;8.73;;;7.93;;
74245;SDS011;62601;51.044;13.788;2023-05-07T12:01:10;8.40;;;7.60;;
74245;SDS011;62601;51.044;13.788;2023-05-07T12:03:32;8.60;;;7.80;;
74245;SDS011;62601;51.044;13.788;2023-05-07T12:05:54;8.13;;;7.37;;
74245;SDS011;62601;51.044;13.788;2023-05-07T12:08:19;7.15;;;6.45;;
74245;SDS011;62601;51.044;13.788;2023-05-07T12:10:42;13.43;;;10.02;;
74245;SDS011;62601;51.044;13.788;2023-05-07T12:13:13;7.63;;;6.93;;
74245;SDS011;62601;51.044;13.788;2023-05-07T12:15:35;8.13;;;7.33;;
74245;SDS011;62601;51.044;13.788;2023-05-07T12:17:56;7.53;;;6.70;;
74245;SDS011;62601;51.044;13.788;2023-05-07T12:20:18;9.37;;;8.47;;
74245;SDS011;62601;51.044;13.788;2023-05-07T12:22:40;7.60;;;7.00;;
74245;SDS011;62601;51.044;13.788;2023-05-07T12:25:02;8.60;;;7.85;;
74245;SDS011;62601;51.044;13.788;2023-05-07T12:27:23;7.90;;;7.20;;
74245;SDS011;62601;51.044;13.788;2023-05-07T12:29:46;7.80;;;7.10;;
74245;SDS011;62601;51.044;13.788;2023-05-07T12:32:06;8.40;;;7.60;;
74245;SDS011;62601;51.044;13.788;2023-05-07T12:34:26;7.07;;;6.47;;
74245;SDS011;62601;51.044;13.788;2023-05-07T12:36:47;7.25;;;6.50;;
74245;SDS011;62601;51.044;13.788;2023-05-07T12:39:08;7.80;;;7.00;;
74245;SDS011;62601;51.044;13.788;2023-05-07T12:41:29;7.40;;;6.77;;
74245;SDS011;62601;51.044;13.788;2023-05-07T12:43:49;7.10;;;6.50;;
74245;SDS011;62601;51.044;13.788;2023-05-07T12:46:09;7.40;;;6.60;;
74245;SDS011;62601;51.044;13.788;2023-05-07T12:48:29;7.37;;;6.70;;
74245;SDS011;62601;51.044;13.788;2023-05-07T12:50:50;7.20;;;6.50;;
74245;SDS011;62601;51.044;13.788;2023-05-07T12:53:11;7.03;;;6.43;;
74245;SDS011;62601;51.044;13.788;2023-05-07T12:55:31;7.20;;;6.60;;
74245;SDS011;62601;51.044;13.788;2023-05-07T12:57:52;7.33;;;6.60;;
74245;SDS011;62601;51.044;13.788;2023-05-07T13:00:13;8.13;;;6.43;;
74245;SDS011;62601;51.044;13.788;2023-05-07T13:02:34;7.47;;;6.77;;
74245;SDS011;62601;51.044;13.788;2023-05-07T13:04:54;9.50;;;7.20;;
74245;SDS011;62601;51.044;13.788;2023-05-07T13:07:14;7.30;;;6.70;;
74245;SDS011;62601;51.044;13.788;2023-05-07T13:09:34;7.43;;;6.80;;
74245;SDS011;62601;51.044;13.788;2023-05-07T13:11:55;7.20;;;6.60;;
74245;SDS011;62601;51.044;13.788;2023-05-07T13:14:15;6.27;;;5.80;;
74245;SDS011;62601;51.044;13.788;2023-05-07T13:16:35;7.10;;;6.37;;
74245;SDS011;62601;51.044;13.788;2023-05-07T13:18:55;6.63;;;6.07;;
74245;SDS011;62601;51.044;13.788;2023-05-07T13:21:15;7.00;;;6.40;;
74245;SDS011;62601;51.044;13.788;2023-05-07T13:23:35;6.80;;;6.23;;
74245;SDS011;62601;51.044;13.788;2023-05-07T13:25:55;8.77;;;6.40;;
74245;SDS011;62601;51.044;13.788;2023-05-07T13:28:16;7.20;;;6.50;;
74245;SDS011;62601;51.044;13.788;2023-05-07T13:30:36;6.40;;;5.83;;
74245;SDS011;62601;51.044;13.788;2023-05-07T13:32:56;7.00;;;6.33;;
74245;SDS011;62601;51.044;13.788;2023-05-07T13:35:16;8.03;;;6.77;;
74245;SDS011;62601;51.044;13.788;2023-05-07T13:37:36;6.63;;;5.93;;
74245;SDS011;62601;51.044;13.788;2023-05-07T13:39:56;6.40;;;5.87;;
74245;SDS011;62601;51.044;13.788;2023-05-07T13:42:17;6.17;;;5.67;;
74245;SDS011;62601;51.044;13.788;2023-05-07T13:44:37;6.20;;;5.60;;
74245;SDS011;62601;51.044;13.788;2023-05-07T13:46:57;8.30;;;6.30;;
74245;SDS011;62601;51.044;13.788;2023-05-07T13:49:17;6.43;;;5.93;;
74245;SDS011;62601;51.044;13.788;2023-05-07T13:51:37;7.00;;;6.40;;